| Date | Time | Temp. (oF) | Dew Point (oF) | Rel. Hum. (%) | Press. (in.) | Wind Dir. | Wind Speed (mph) | Hourly Rainfall (in.) |
|
|---|---|---|---|---|---|---|---|---|---|
| 1 | 03/22 | 00:00 | 33 | 20 | 60 | 30.46 | WSW | 0 | 0.00 |
| 2 | 03/21 | 23:00 | 37 | 20 | 51 | 30.46 | WSW | 2 | 0.00 |
| 3 | 03/21 | 22:00 | 39 | 19 | 46 | 30.46 | SSW | 3 | 0.00 |
| 4 | 03/21 | 21:00 | 41 | 20 | 43 | 30.46 | SSW | 3 | 0.00 |
| 5 | 03/21 | 20:00 | 43 | 20 | 41 | 30.43 | ESE | 0 | 0.00 |
| 6 | 03/21 | 19:00 | 46 | 18 | 33 | 30.42 | NW | 3 | 0.00 |
| 7 | 03/21 | 18:00 | 47 | 18 | 32 | 30.42 | SSW | 5 | 0.00 |
| 8 | 03/21 | 17:00 | 47 | 20 | 35 | 30.44 | NNW | 1 | 0.00 |
| 9 | 03/21 | 16:00 | 47 | 17 | 31 | 30.45 | NNE | 1 | 0.00 |
| 10 | 03/21 | 15:00 | 47 | 20 | 35 | 30.47 | NE | 1 | 0.00 |
| 11 | 03/21 | 14:00 | 47 | 23 | 39 | 30.50 | SSW | 6 | 0.00 |
| 12 | 03/21 | 13:00 | 44 | 19 | 37 | 30.53 | W | 4 | 0.00 |
| 13 | 03/21 | 12:00 | 43 | 21 | 42 | 30.55 | WSW | 7 | 0.00 |
| 14 | 03/21 | 11:00 | 41 | 21 | 46 | 30.55 | ESE | 7 | 0.00 |
| 15 | 03/21 | 10:00 | 37 | 20 | 50 | 30.55 | S | 1 | 0.00 |
| 16 | 03/21 | 09:00 | 33 | 24 | 72 | 30.55 | WSW | 0 | 0.00 |
| 17 | 03/21 | 08:00 | 24 | 20 | 86 | 30.53 | NW | 0 | 0.00 |
| 18 | 03/21 | 07:00 | 22 | 17 | 81 | 30.52 | NW | 0 | 0.00 |
| 19 | 03/21 | 06:00 | 25 | 16 | 69 | 30.50 | NW | 0 | 0.00 |
| 20 | 03/21 | 05:00 | 25 | 16 | 70 | 30.47 | SW | 0 | 0.00 |
| 21 | 03/21 | 04:00 | 27 | 16 | 64 | 30.46 | W | 0 | 0.00 |
| 22 | 03/21 | 03:00 | 29 | 13 | 53 | 30.45 | NNW | 2 | 0.00 |
| 23 | 03/21 | 02:00 | 31 | 13 | 47 | 30.45 | NE | 0 | 0.00 |
| 24 | 03/21 | 01:00 | 33 | 13 | 44 | 30.44 | NE | 3 | 0.00 |